createdAt,value
2022-09-16T00:00:55.817Z,17.20
2022-09-16T00:03:23.047Z,17.20
2022-09-16T00:05:53.251Z,17.20
2022-09-16T00:08:21.653Z,17.20
2022-09-16T00:10:48.999Z,17.20
2022-09-16T00:13:16.867Z,17.20
2022-09-16T00:15:47.149Z,17.20
2022-09-16T00:18:14.861Z,17.20
2022-09-16T00:20:47.963Z,17.20
2022-09-16T00:23:15.518Z,17.30
2022-09-16T00:25:42.710Z,17.30
2022-09-16T00:28:10.536Z,17.20
2022-09-16T00:30:37.586Z,17.30
2022-09-16T00:33:05.067Z,17.30
2022-09-16T00:35:32.282Z,17.30
2022-09-16T00:37:59.387Z,17.30
2022-09-16T00:40:26.662Z,17.30
2022-09-16T00:42:53.839Z,17.30
2022-09-16T00:45:25.247Z,17.30
2022-09-16T00:48:06.844Z,17.30
2022-09-16T00:50:42.573Z,17.30
2022-09-16T00:53:28.294Z,17.30
2022-09-16T00:55:58.222Z,17.30
2022-09-16T00:58:41.383Z,17.30
2022-09-16T01:01:08.787Z,17.40
2022-09-16T01:03:46.973Z,17.30
2022-09-16T01:06:15.640Z,17.30
2022-09-16T01:08:44.081Z,17.30
2022-09-16T01:11:11.461Z,17.30
2022-09-16T01:13:39.966Z,17.30
2022-09-16T01:16:11.800Z,17.30
2022-09-16T01:19:10.343Z,17.30
2022-09-16T01:21:46.228Z,17.40
2022-09-16T01:25:02.842Z,17.40
2022-09-16T01:28:10.596Z,17.40
2022-09-16T01:31:05.941Z,17.40
2022-09-16T01:34:10.559Z,17.40
2022-09-16T01:37:12.894Z,17.40
2022-09-16T01:40:29.177Z,17.40
2022-09-16T01:43:21.530Z,17.40
2022-09-16T01:45:56.496Z,17.40
2022-09-16T01:49:03.700Z,17.40
2022-09-16T01:51:59.463Z,17.40
2022-09-16T01:54:52.757Z,17.40
2022-09-16T01:57:41.510Z,17.30
2022-09-16T02:00:14.198Z,17.30
2022-09-16T02:02:46.630Z,17.30
2022-09-16T02:05:23.683Z,17.20
2022-09-16T02:08:01.738Z,17.30
2022-09-16T02:10:36.143Z,17.20
2022-09-16T02:13:15.238Z,17.20
2022-09-16T02:15:44.227Z,17.20
2022-09-16T02:18:15.537Z,17.20
2022-09-16T02:20:46.926Z,17.20
2022-09-16T02:23:23.512Z,17.20
2022-09-16T02:25:52.871Z,17.20
2022-09-16T02:28:28.041Z,17.20
2022-09-16T02:30:59.510Z,17.20
2022-09-16T02:33:37.290Z,17.20
2022-09-16T02:36:06.390Z,17.20
2022-09-16T02:38:43.944Z,17.20
2022-09-16T02:41:14.895Z,17.20
2022-09-16T02:43:43.260Z,17.20
2022-09-16T02:46:43.275Z,17.30
2022-09-16T02:49:48.865Z,17.30
2022-09-16T02:52:50.612Z,17.30
2022-09-16T02:55:53.963Z,17.30
2022-09-16T02:58:21.465Z,17.30
2022-09-16T03:00:54.325Z,17.30
2022-09-16T03:03:22.416Z,17.30
2022-09-16T03:06:01.311Z,17.20
2022-09-16T03:08:28.628Z,17.30
2022-09-16T03:11:00.679Z,17.20
2022-09-16T03:14:00.067Z,17.20
2022-09-16T03:16:45.902Z,17.20
2022-09-16T03:19:33.351Z,17.20
2022-09-16T03:22:46.024Z,17.30
2022-09-16T03:25:40.202Z,17.30
2022-09-16T03:28:42.332Z,17.30
2022-09-16T03:31:51.601Z,17.30
2022-09-16T03:34:21.386Z,17.30
2022-09-16T03:36:54.792Z,17.30
2022-09-16T03:39:22.730Z,17.40
2022-09-16T03:41:50.159Z,17.30
2022-09-16T03:44:17.368Z,17.30
2022-09-16T03:46:44.548Z,17.30
2022-09-16T03:49:11.687Z,17.40
2022-09-16T03:51:38.876Z,17.40
2022-09-16T03:54:06.107Z,17.40
2022-09-16T03:56:33.187Z,17.40
2022-09-16T03:59:00.392Z,17.40
2022-09-16T04:01:27.471Z,17.30
2022-09-16T04:03:54.693Z,17.40
2022-09-16T04:06:21.958Z,17.40
2022-09-16T04:08:59.304Z,17.40
2022-09-16T04:11:29.759Z,17.40
2022-09-16T04:13:56.879Z,17.40
2022-09-16T04:16:23.968Z,17.40
2022-09-16T04:18:51.303Z,17.40
2022-09-16T04:21:18.818Z,17.40
2022-09-16T04:23:46.647Z,17.30
2022-09-16T04:26:13.751Z,17.30
2022-09-16T04:28:40.998Z,17.30
2022-09-16T04:31:12.367Z,17.30
2022-09-16T04:33:40.581Z,17.30
2022-09-16T04:36:19.880Z,17.30
2022-09-16T04:38:48.869Z,17.30
2022-09-16T04:41:21.017Z,17.30
2022-09-16T04:43:53.470Z,17.30
2022-09-16T04:46:20.820Z,17.30
2022-09-16T04:48:50.661Z,17.30
2022-09-16T04:51:28.337Z,17.30
2022-09-16T04:53:57.230Z,17.30
2022-09-16T04:56:29.018Z,17.30
2022-09-16T04:59:00.013Z,17.30
2022-09-16T05:01:31.609Z,17.30
2022-09-16T05:04:03.701Z,17.30
2022-09-16T05:06:42.045Z,17.30
2022-09-16T05:09:12.070Z,17.30
2022-09-16T05:11:41.188Z,17.30
2022-09-16T05:14:14.222Z,17.30
2022-09-16T05:16:41.698Z,17.30
2022-09-16T05:19:11.850Z,17.30
2022-09-16T05:21:39.586Z,17.30
2022-09-16T05:24:10.416Z,17.30
2022-09-16T05:26:42.105Z,17.30
2022-09-16T05:29:40.595Z,17.40
2022-09-16T05:32:07.974Z,17.40
2022-09-16T05:34:36.942Z,17.40
2022-09-16T05:37:04.064Z,17.40
2022-09-16T05:39:31.557Z,17.40
2022-09-16T05:42:00.639Z,17.40
2022-09-16T05:44:29.467Z,17.50
2022-09-16T05:46:57.163Z,17.50
2022-09-16T05:49:24.616Z,17.50
2022-09-16T05:51:52.732Z,17.50
2022-09-16T05:54:20.806Z,17.60
2022-09-16T05:56:48.723Z,17.60
2022-09-16T05:59:17.442Z,17.60
2022-09-16T06:01:45.346Z,17.60
2022-09-16T06:04:15.110Z,17.70
2022-09-16T06:06:44.987Z,17.70
2022-09-16T06:09:23.629Z,17.70
2022-09-16T06:12:00.763Z,17.70
2022-09-16T06:14:29.255Z,17.70
2022-09-16T06:16:56.507Z,17.70
2022-09-16T06:19:24.062Z,17.70
2022-09-16T06:21:51.066Z,17.80
2022-09-16T06:24:20.690Z,17.80
2022-09-16T06:26:49.500Z,17.90
2022-09-16T06:29:17.629Z,17.90
2022-09-16T06:31:44.811Z,17.90
2022-09-16T06:34:18.552Z,18.00
2022-09-16T06:36:47.437Z,18.00
2022-09-16T06:39:16.362Z,18.00
2022-09-16T06:41:44.538Z,18.10
2022-09-16T06:44:11.615Z,18.10
2022-09-16T06:46:38.876Z,18.10
2022-09-16T06:49:06.845Z,18.10
2022-09-16T06:51:34.887Z,18.20
2022-09-16T06:54:07.609Z,18.20
2022-09-16T06:56:37.781Z,18.20
2022-09-16T06:59:05.393Z,18.20
2022-09-16T07:01:33.939Z,18.20
2022-09-16T07:04:13.331Z,18.20
2022-09-16T07:09:28.173Z,18.20
2022-09-16T07:11:55.460Z,18.20
2022-09-16T07:14:23.104Z,18.30
2022-09-16T07:16:50.271Z,18.30
2022-09-16T07:19:17.544Z,18.30
2022-09-16T07:21:44.880Z,18.30
2022-09-16T07:24:14.263Z,18.30
2022-09-16T07:26:43.456Z,18.40
2022-09-16T07:29:19.561Z,18.50
2022-09-16T07:31:46.929Z,18.50
2022-09-16T07:34:14.502Z,18.50
2022-09-16T07:36:45.633Z,18.50
2022-09-16T07:39:15.116Z,18.60
2022-09-16T07:41:44.597Z,18.60
2022-09-16T07:44:17.631Z,18.60
2022-09-16T07:46:45.132Z,18.70
2022-09-16T07:49:15.187Z,18.70
2022-09-16T07:51:42.891Z,18.70
2022-09-16T07:54:14.190Z,18.70
2022-09-16T07:56:43.724Z,18.70
2022-09-16T07:59:18.733Z,18.70
2022-09-16T08:01:48.019Z,18.70
2022-09-16T08:04:16.161Z,18.70
2022-09-16T08:06:43.349Z,18.70
2022-09-16T08:09:36.744Z,18.70
2022-09-16T08:11:58.384Z,18.70
2022-09-16T08:14:26.014Z,18.70
2022-09-16T08:16:53.181Z,18.70
2022-09-16T08:19:22.426Z,18.70
2022-09-16T08:21:49.747Z,18.70
2022-09-16T08:24:16.942Z,18.70
2022-09-16T08:26:44.081Z,18.70
2022-09-16T08:29:11.795Z,18.70
2022-09-16T08:31:39.334Z,18.70
2022-09-16T08:34:06.823Z,18.70
2022-09-16T08:36:34.609Z,18.70
2022-09-16T08:39:01.799Z,18.70
2022-09-16T08:42:03.396Z,18.80
2022-09-16T08:45:02.416Z,18.80
2022-09-16T08:48:08.058Z,18.80
2022-09-16T08:50:42.369Z,18.90
2022-09-16T08:53:50.632Z,18.90
2022-09-16T08:56:21.995Z,18.90
2022-09-16T08:58:54.986Z,18.90
2022-09-16T09:01:33.232Z,19.00
2022-09-16T09:04:01.557Z,19.00
2022-09-16T09:06:55.991Z,19.10
2022-09-16T09:09:47.078Z,19.10
2022-09-16T09:12:32.815Z,19.10
2022-09-16T09:15:31.860Z,19.20
2022-09-16T09:18:33.992Z,19.20
2022-09-16T09:21:38.415Z,19.20
2022-09-16T09:24:36.662Z,19.30
2022-09-16T09:27:32.273Z,19.30
2022-09-16T09:30:21.345Z,19.30
2022-09-16T09:33:46.859Z,19.40
2022-09-16T09:36:47.662Z,19.40
2022-09-16T09:39:27.534Z,19.50
2022-09-16T09:42:22.574Z,19.50
2022-09-16T09:45:12.218Z,19.50
2022-09-16T09:48:13.321Z,19.60
2022-09-16T09:50:42.906Z,19.70
2022-09-16T09:53:25.157Z,19.70
2022-09-16T09:56:08.587Z,19.80
2022-09-16T09:58:44.850Z,19.90
2022-09-16T10:01:11.944Z,20.00
2022-09-16T10:03:40.324Z,20.10
2022-09-16T10:06:07.528Z,20.20
2022-09-16T10:08:47.757Z,20.30
2022-09-16T10:11:22.884Z,20.40
2022-09-16T10:13:58.047Z,20.40
2022-09-16T10:16:37.321Z,20.40
2022-09-16T10:19:05.830Z,20.50
2022-09-16T10:21:51.121Z,20.50
2022-09-16T10:24:30.411Z,20.50
2022-09-16T10:26:59.531Z,20.60
2022-09-16T10:29:26.893Z,20.60
2022-09-16T10:31:54.945Z,20.60
2022-09-16T10:34:37.198Z,20.70
2022-09-16T10:37:12.808Z,20.70
2022-09-16T10:39:56.613Z,20.70
2022-09-16T10:42:29.016Z,20.80
2022-09-16T10:45:24.423Z,20.80
2022-09-16T10:47:56.067Z,20.80
2022-09-16T10:50:25.215Z,20.80
2022-09-16T10:52:52.680Z,20.80
2022-09-16T10:55:19.827Z,20.90
2022-09-16T10:57:47.789Z,21.00
2022-09-16T11:00:31.629Z,21.00
2022-09-16T11:03:37.505Z,21.10
2022-09-16T11:06:13.461Z,21.20
2022-09-16T11:09:34.512Z,21.20
2022-09-16T11:12:35.501Z,21.30
2022-09-16T11:16:01.577Z,21.30
2022-09-16T11:18:52.311Z,21.30
2022-09-16T11:21:57.024Z,21.30
2022-09-16T11:25:00.654Z,21.30
2022-09-16T11:27:45.652Z,21.30
2022-09-16T11:30:21.989Z,21.20
2022-09-16T11:32:56.008Z,21.20
2022-09-16T11:35:39.640Z,21.20
2022-09-16T11:38:59.102Z,21.10
2022-09-16T11:41:55.744Z,21.10
2022-09-16T11:44:51.482Z,21.00
2022-09-16T11:47:48.686Z,20.90
2022-09-16T11:50:40.485Z,20.80
2022-09-16T11:53:54.230Z,20.60
2022-09-16T11:56:53.590Z,20.50
2022-09-16T11:59:40.088Z,20.30
2022-09-16T12:02:27.766Z,20.10
2022-09-16T12:05:21.495Z,20.00
2022-09-16T12:08:23.149Z,19.80
2022-09-16T12:11:10.247Z,19.60
2022-09-16T12:14:05.554Z,19.50
2022-09-16T12:16:41.995Z,19.50
2022-09-16T12:19:50.427Z,19.30
2022-09-16T12:22:34.110Z,19.20
2022-09-16T12:25:23.318Z,19.20
2022-09-16T12:28:21.535Z,19.20
2022-09-16T12:31:14.305Z,19.20
2022-09-16T12:34:00.012Z,19.20
2022-09-16T12:36:38.708Z,19.30
2022-09-16T12:39:06.189Z,19.30
2022-09-16T12:42:02.064Z,19.30
2022-09-16T12:45:05.279Z,19.40
2022-09-16T12:47:47.047Z,19.40
2022-09-16T12:50:52.428Z,19.40
2022-09-16T12:53:49.751Z,19.30
2022-09-16T12:57:04.873Z,19.30
2022-09-16T13:00:14.186Z,19.20
2022-09-16T13:03:30.696Z,19.20
2022-09-16T13:06:05.476Z,19.00
2022-09-16T13:08:34.914Z,18.90
2022-09-16T13:13:58.810Z,18.70
2022-09-16T13:16:37.046Z,18.60
2022-09-16T13:19:21.996Z,18.50
2022-09-16T13:21:50.348Z,18.50
2022-09-16T13:24:47.216Z,18.30
2022-09-16T13:27:32.247Z,18.30
2022-09-16T13:30:15.843Z,18.20
2022-09-16T13:33:04.197Z,18.10
2022-09-16T13:35:46.867Z,18.00
2022-09-16T13:38:20.240Z,18.00
2022-09-16T13:41:14.712Z,17.90
2022-09-16T13:43:47.873Z,17.80
2022-09-16T13:46:29.860Z,17.70
2022-09-16T13:49:06.682Z,17.50
2022-09-16T13:51:44.624Z,17.40
2022-09-16T13:54:37.117Z,17.20
2022-09-16T13:58:05.867Z,17.10
2022-09-16T14:00:53.910Z,17.00
2022-09-16T14:04:08.042Z,16.80
2022-09-16T14:07:03.728Z,16.70
2022-09-16T14:10:01.682Z,16.50
2022-09-16T14:12:52.950Z,16.50
2022-09-16T14:15:22.324Z,16.40
2022-09-16T14:17:59.167Z,16.40
2022-09-16T14:20:27.225Z,16.40
2022-09-16T14:23:06.589Z,16.40
2022-09-16T14:25:36.743Z,16.50
2022-09-16T14:28:23.511Z,16.50
2022-09-16T14:31:00.742Z,16.50
2022-09-16T14:33:41.328Z,16.50
2022-09-16T14:36:20.018Z,16.60
2022-09-16T14:39:15.030Z,16.60
2022-09-16T14:41:51.432Z,16.70
2022-09-16T14:44:23.252Z,16.70
2022-09-16T14:47:08.868Z,16.80
2022-09-16T14:49:40.504Z,16.80
2022-09-16T14:52:23.885Z,16.80
2022-09-16T14:54:51.987Z,16.80
2022-09-16T14:57:25.500Z,16.80
2022-09-16T14:59:56.809Z,16.90
2022-09-16T15:02:31.920Z,16.90
2022-09-16T15:05:08.118Z,16.90
2022-09-16T15:07:50.875Z,16.90
2022-09-16T15:10:39.682Z,16.90
2022-09-16T15:13:18.841Z,16.90
2022-09-16T15:15:57.795Z,16.90
2022-09-16T15:18:33.232Z,16.90
2022-09-16T15:21:06.891Z,16.90
2022-09-16T15:23:36.075Z,16.90
2022-09-16T15:26:19.654Z,16.90
2022-09-16T15:29:29.936Z,16.80
2022-09-16T15:32:22.593Z,16.80
2022-09-16T15:35:23.595Z,16.80
2022-09-16T15:37:55.469Z,16.70
2022-09-16T15:40:25.616Z,16.70
2022-09-16T15:43:16.216Z,16.60
2022-09-16T15:45:45.714Z,16.60
2022-09-16T15:48:19.341Z,16.50
2022-09-16T15:51:01.303Z,16.40
2022-09-16T15:53:31.729Z,16.40
2022-09-16T15:56:04.829Z,16.40
2022-09-16T15:58:40.449Z,16.40
2022-09-16T16:01:40.262Z,16.30
2022-09-16T16:04:11.955Z,16.30
2022-09-16T16:07:00.112Z,16.20
2022-09-16T16:09:29.677Z,16.20
2022-09-16T16:12:13.925Z,16.10
2022-09-16T16:14:41.908Z,16.10
2022-09-16T16:17:20.141Z,16.00
2022-09-16T16:19:50.419Z,16.00
2022-09-16T16:22:18.159Z,16.00
2022-09-16T16:24:45.570Z,16.00
2022-09-16T16:27:12.654Z,16.00
2022-09-16T16:29:39.985Z,16.00
2022-09-16T16:32:10.501Z,16.00
2022-09-16T16:34:50.366Z,16.00
2022-09-16T16:37:44.345Z,16.00
2022-09-16T16:40:08.098Z,16.00
2022-09-16T16:42:35.873Z,15.90
2022-09-16T16:45:03.138Z,15.90
2022-09-16T16:47:30.409Z,15.90
2022-09-16T16:49:58.092Z,15.90
2022-09-16T16:52:25.214Z,15.90
2022-09-16T16:54:53.194Z,15.90
2022-09-16T16:57:20.269Z,15.90
2022-09-16T16:59:47.534Z,15.90
2022-09-16T17:02:15.266Z,15.80
2022-09-16T17:04:42.420Z,15.80
2022-09-16T17:07:27.683Z,15.80
2022-09-16T17:09:59.555Z,15.80
2022-09-16T17:12:27.730Z,15.70
2022-09-16T17:14:54.798Z,15.70
2022-09-16T17:17:22.165Z,15.70
2022-09-16T17:19:49.565Z,15.70
2022-09-16T17:22:16.591Z,15.60
2022-09-16T17:24:43.713Z,15.60
2022-09-16T17:27:10.839Z,15.60
2022-09-16T17:29:37.975Z,15.60
2022-09-16T17:32:05.113Z,15.50
2022-09-16T17:34:32.713Z,15.50
2022-09-16T17:36:59.898Z,15.50
2022-09-16T17:39:27.061Z,15.40
2022-09-16T17:41:56.714Z,15.40
2022-09-16T17:44:24.187Z,15.40
2022-09-16T17:46:51.513Z,15.40
2022-09-16T17:49:21.857Z,15.40
2022-09-16T17:51:51.069Z,15.40
2022-09-16T17:54:18.632Z,15.40
2022-09-16T17:56:46.259Z,15.30
2022-09-16T17:59:16.999Z,15.30
2022-09-16T18:01:44.580Z,15.30
2022-09-16T18:04:11.833Z,15.30
2022-09-16T18:06:46.993Z,15.30
2022-09-16T18:09:16.404Z,15.30
2022-09-16T18:11:44.326Z,15.30
2022-09-16T18:14:13.747Z,15.30
2022-09-16T18:16:42.236Z,15.30
2022-09-16T18:19:09.857Z,15.30
2022-09-16T18:21:38.176Z,15.20
2022-09-16T18:24:11.225Z,15.30
2022-09-16T18:26:38.740Z,15.30
2022-09-16T18:29:09.928Z,15.30
2022-09-16T18:31:41.337Z,15.30
2022-09-16T18:34:09.020Z,15.30
2022-09-16T18:36:37.838Z,15.30
2022-09-16T18:39:07.161Z,15.30
2022-09-16T18:41:40.568Z,15.30
2022-09-16T18:44:24.942Z,15.30
2022-09-16T18:46:53.290Z,15.30
2022-09-16T18:49:26.444Z,15.30
2022-09-16T18:51:54.782Z,15.30
2022-09-16T18:54:28.139Z,15.20
2022-09-16T18:57:01.289Z,15.20
2022-09-16T18:59:32.066Z,15.20
2022-09-16T19:02:02.751Z,15.20
2022-09-16T19:04:33.427Z,15.20
2022-09-16T19:07:07.508Z,15.20
2022-09-16T19:09:40.256Z,15.20
2022-09-16T19:12:11.191Z,15.20
2022-09-16T19:14:39.147Z,15.20
2022-09-16T19:17:06.468Z,15.20
2022-09-16T19:19:33.720Z,15.20
2022-09-16T19:22:05.634Z,15.10
2022-09-16T19:24:33.680Z,15.10
2022-09-16T19:27:00.865Z,15.10
2022-09-16T19:29:27.881Z,15.10
2022-09-16T19:31:54.991Z,15.10
2022-09-16T19:34:22.651Z,15.10
2022-09-16T19:36:50.378Z,15.00
2022-09-16T19:39:18.713Z,15.00
2022-09-16T19:41:45.902Z,15.00
2022-09-16T19:44:16.360Z,15.00
2022-09-16T19:46:47.106Z,15.00
2022-09-16T19:49:19.931Z,15.00
2022-09-16T19:51:48.423Z,14.90
2022-09-16T19:54:16.724Z,14.90
2022-09-16T19:56:48.221Z,14.90
2022-09-16T19:59:18.894Z,14.90
2022-09-16T20:01:46.675Z,14.80
2022-09-16T20:04:14.400Z,14.80
2022-09-16T20:06:42.821Z,14.80
2022-09-16T20:09:12.938Z,14.80
2022-09-16T20:11:45.724Z,14.70
2022-09-16T20:14:20.044Z,14.70
2022-09-16T20:16:49.647Z,14.70
2022-09-16T20:19:20.053Z,14.60
2022-09-16T20:21:47.488Z,14.60
2022-09-16T20:24:19.071Z,14.50
2022-09-16T20:26:50.946Z,14.50
2022-09-16T20:29:18.880Z,14.50
2022-09-16T20:31:48.426Z,14.50
2022-09-16T20:34:16.841Z,14.40
2022-09-16T20:36:46.000Z,14.40
2022-09-16T20:39:14.545Z,14.40
2022-09-16T20:41:42.505Z,14.30
2022-09-16T20:44:15.234Z,14.30
2022-09-16T20:46:42.823Z,14.30
2022-09-16T20:49:15.972Z,14.30
2022-09-16T20:51:43.432Z,14.20
2022-09-16T20:54:14.455Z,14.20
2022-09-16T20:56:44.988Z,14.20
2022-09-16T20:59:15.222Z,14.20
2022-09-16T21:01:43.177Z,14.20
2022-09-16T21:04:18.942Z,14.20
2022-09-16T21:06:46.480Z,14.20
2022-09-16T21:09:15.879Z,14.20
2022-09-16T21:11:45.860Z,14.20
2022-09-16T21:14:16.278Z,14.20
2022-09-16T21:16:45.620Z,14.20
2022-09-16T21:19:13.518Z,14.10
2022-09-16T21:21:44.722Z,14.10
2022-09-16T21:24:13.255Z,14.10
2022-09-16T21:26:41.647Z,14.10
2022-09-16T21:29:12.283Z,14.10
2022-09-16T21:31:42.586Z,14.00
2022-09-16T21:34:19.536Z,14.00
2022-09-16T21:36:47.656Z,14.00
2022-09-16T21:39:17.301Z,14.00
2022-09-16T21:41:46.111Z,14.00
2022-09-16T21:44:14.494Z,14.10
2022-09-16T21:46:46.354Z,14.10
2022-09-16T21:49:23.066Z,14.10
2022-09-16T21:51:56.260Z,14.10
2022-09-16T21:54:25.097Z,14.10
2022-09-16T21:56:52.982Z,14.10
2022-09-16T21:59:20.855Z,14.20
2022-09-16T22:01:50.128Z,14.20
2022-09-16T22:04:23.511Z,14.20
2022-09-16T22:06:54.925Z,14.20
2022-09-16T22:09:22.695Z,14.20
2022-09-16T22:11:49.960Z,14.20
2022-09-16T22:14:17.162Z,14.30
2022-09-16T22:16:44.810Z,14.30
2022-09-16T22:19:18.130Z,14.30
2022-09-16T22:21:51.127Z,14.30
2022-09-16T22:24:22.003Z,14.40
2022-09-16T22:26:51.056Z,14.40
2022-09-16T22:29:18.846Z,14.40
2022-09-16T22:31:46.307Z,14.40
2022-09-16T22:34:13.666Z,14.40
2022-09-16T22:36:40.907Z,14.40
2022-09-16T22:39:16.260Z,14.40
2022-09-16T22:41:44.183Z,14.40
2022-09-16T22:44:11.753Z,14.40
2022-09-16T22:46:45.482Z,14.50
2022-09-16T22:49:14.088Z,14.50
2022-09-16T22:51:42.224Z,14.50
2022-09-16T22:54:10.526Z,14.40
2022-09-16T22:56:37.695Z,14.40
2022-09-16T22:59:08.402Z,14.40
2022-09-16T23:01:39.730Z,14.40
2022-09-16T23:04:09.458Z,14.40
2022-09-16T23:06:38.703Z,14.40
2022-09-16T23:09:08.118Z,14.40
2022-09-16T23:11:36.300Z,14.40
2022-09-16T23:14:05.345Z,14.40
2022-09-16T23:16:38.484Z,14.30
2022-09-16T23:19:09.847Z,14.30
2022-09-16T23:21:38.242Z,14.30
2022-09-16T23:24:07.772Z,14.30
2022-09-16T23:26:37.480Z,14.30
2022-09-16T23:29:08.610Z,14.30
2022-09-16T23:31:43.359Z,14.30
2022-09-16T23:34:20.087Z,14.30
2022-09-16T23:36:48.761Z,14.40
2022-09-16T23:39:17.373Z,14.30
2022-09-16T23:41:45.224Z,14.30
2022-09-16T23:44:14.913Z,14.30
2022-09-16T23:46:42.145Z,14.30
2022-09-16T23:49:10.590Z,14.20
2022-09-16T23:51:38.093Z,14.20
2022-09-16T23:54:05.311Z,14.20
2022-09-16T23:56:32.810Z,14.20
2022-09-16T23:59:00.982Z,14.20
